John F Kennedy International Airport
KJFK : now visible

Airfield :











YOU CAN JOIN US ON...

 
LOGIN :

Register | Disclaimer

   EN    FR    IT 

 









Legend :    VFR   Marginal VFR   IFR   Intensive IFR   Very Intensive IFR
Visi :
Ceiling :
>= 8 km
>= 3000ft
5 to 8 km
1000 to 3000 ft
1500m to 5 km
500 to 1000 ft
800 to 1500m
200 to 500 ft
< 800m
< 200 ft
Symbols :   Thunderstorms  Fog  Heavy snow  Heavy precipitations  Wind > 20 kt






- Airport Elevation : 13 ft
- IATA code : JFK


KJFK - John F Kennedy International

CURRENT METAR :
  • 250351Z 00000KT 10SM CLR 18/16 A2983 RMK AO2 SLP102 T01830161 $

EXPIRED METARs :
  • 250251Z 14003KT 10SM FEW250 18/16 A2982 RMK AO2 SLP099 T01780161 51009 $
  • 250151Z 19004KT 10SM FEW250 18/16 A2982 RMK AO2 SLP099 T01830161 $
  • 250051Z 20008KT 10SM FEW070 FEW250 20/17 A2981 RMK AO2 SLP095 T02000167 $
  • 242351Z 19012KT 10SM FEW070 FEW250 22/13 A2980 RMK AO2 SLP090 T02170133 50001 $

TAF KJFK
Valid from the 25 at 02:00 until the 26 at 06:00 UTC


250216Z 2502/2606 20005KT P6SM SKC
FM251200 08006KT P6SM SKC
FM251500 13008KT P6SM FEW050
FM251900 15010KT P6SM FEW250
FM260300 18007KT P6SM BKN200
KZNY FIR / North America



MET'MAP, your aeronautical weather chart ! - Copyright ORBIFLY December 2007 - Disclaimer

ORBIFLY MET'MAP TEAM :

Programming & Development : Alexandra Zaïnal
Original concept : Baudouin d'Aumeries
Technical & hardware support : Manuel Goepfert
Assistance : Marc-Olivier Méhu




SOURCES & CREDITS :

   NOAA       Earth
Advisory